createdAt,value
2022-09-30T00:00:49.890Z,975.718
2022-09-30T00:02:50.958Z,975.687
2022-09-30T00:04:50.651Z,975.693
2022-09-30T00:06:49.963Z,975.725
2022-09-30T00:08:49.995Z,975.712
2022-09-30T00:10:50.803Z,975.729
2022-09-30T00:12:49.781Z,975.762
2022-09-30T00:14:50.633Z,975.730
2022-09-30T00:16:49.864Z,975.701
2022-09-30T00:18:50.656Z,975.693
2022-09-30T00:20:50.681Z,975.627
2022-09-30T00:22:50.589Z,975.658
2022-09-30T00:24:49.826Z,975.623
2022-09-30T00:26:49.912Z,975.598
2022-09-30T00:28:49.817Z,975.605
2022-09-30T00:30:50.703Z,975.593
2022-09-30T00:32:50.743Z,975.617
2022-09-30T00:34:50.055Z,975.659
2022-09-30T00:36:50.243Z,975.689
2022-09-30T00:38:50.155Z,975.700
2022-09-30T00:40:50.054Z,975.730
2022-09-30T00:42:49.893Z,975.709
2022-09-30T00:44:50.744Z,975.760
2022-09-30T00:46:50.459Z,975.791
2022-09-30T00:48:49.924Z,975.842
2022-09-30T00:50:49.887Z,975.842
2022-09-30T00:52:49.827Z,975.833
2022-09-30T00:54:49.809Z,975.837
2022-09-30T00:56:49.965Z,975.892
2022-09-30T00:58:50.756Z,975.889
2022-09-30T01:00:50.879Z,975.858
2022-09-30T01:02:49.932Z,975.865
2022-09-30T01:04:50.461Z,975.893
2022-09-30T01:06:49.911Z,975.914
2022-09-30T01:08:50.761Z,975.913
2022-09-30T01:10:50.681Z,975.932
2022-09-30T01:12:50.660Z,975.964
2022-09-30T01:14:50.533Z,975.970
2022-09-30T01:16:49.860Z,976.004
2022-09-30T01:18:50.618Z,975.996
2022-09-30T01:20:50.515Z,975.981
2022-09-30T01:22:50.324Z,975.969
2022-09-30T01:24:50.147Z,975.959
2022-09-30T01:26:50.469Z,976.022
2022-09-30T01:28:50.484Z,976.019
2022-09-30T01:30:50.672Z,976.070
2022-09-30T01:32:49.911Z,976.062
2022-09-30T01:34:50.091Z,976.114
2022-09-30T01:36:50.143Z,976.125
2022-09-30T01:38:50.015Z,976.096
2022-09-30T01:40:50.013Z,976.051
2022-09-30T01:42:49.972Z,976.040
2022-09-30T01:44:49.885Z,975.999
2022-09-30T01:46:50.166Z,976.050
2022-09-30T01:48:50.345Z,976.058
2022-09-30T01:50:50.304Z,976.072
2022-09-30T01:52:49.963Z,976.107
2022-09-30T01:54:49.812Z,976.119
2022-09-30T01:56:50.082Z,976.154
2022-09-30T01:58:50.092Z,976.151
2022-09-30T02:00:50.147Z,976.204
2022-09-30T02:02:50.238Z,976.210
2022-09-30T02:04:50.762Z,976.213
2022-09-30T02:06:50.010Z,976.187
2022-09-30T02:08:50.131Z,976.168
2022-09-30T02:10:50.230Z,976.190
2022-09-30T02:12:50.194Z,976.182
2022-09-30T02:14:50.393Z,976.195
2022-09-30T02:16:49.871Z,976.192
2022-09-30T02:18:49.864Z,976.186
2022-09-30T02:20:49.840Z,976.171
2022-09-30T02:22:50.810Z,976.166
2022-09-30T02:24:50.646Z,976.172
2022-09-30T02:26:50.047Z,976.183
2022-09-30T02:28:49.961Z,976.165
2022-09-30T02:30:49.952Z,976.248
2022-09-30T02:32:49.894Z,976.237
2022-09-30T02:34:50.479Z,976.273
2022-09-30T02:36:49.773Z,976.296
2022-09-30T02:38:50.710Z,976.283
2022-09-30T02:40:49.961Z,976.353
2022-09-30T02:42:49.887Z,976.367
2022-09-30T02:44:50.764Z,976.388
2022-09-30T02:46:50.377Z,976.424
2022-09-30T02:48:50.619Z,976.425
2022-09-30T02:50:50.487Z,976.428
2022-09-30T02:52:50.606Z,976.452
2022-09-30T02:54:50.502Z,976.515
2022-09-30T02:56:49.867Z,976.520
2022-09-30T02:58:50.750Z,976.534
2022-09-30T03:00:51.081Z,976.559
2022-09-30T03:02:50.186Z,976.557
2022-09-30T03:04:50.695Z,976.542
2022-09-30T03:06:49.996Z,976.565
2022-09-30T03:08:49.968Z,976.572
2022-09-30T03:10:49.905Z,976.661
2022-09-30T03:12:49.962Z,976.747
2022-09-30T03:14:49.957Z,976.661
2022-09-30T03:16:50.105Z,976.678
2022-09-30T03:18:50.036Z,976.665
2022-09-30T03:20:49.990Z,976.651
2022-09-30T03:22:49.873Z,976.643
2022-09-30T03:24:50.739Z,976.647
2022-09-30T03:26:50.750Z,976.643
2022-09-30T03:28:50.638Z,976.658
2022-09-30T03:30:50.439Z,976.715
2022-09-30T03:32:50.573Z,976.737
2022-09-30T03:34:49.980Z,976.795
2022-09-30T03:36:50.218Z,976.853
2022-09-30T03:38:50.017Z,976.905
2022-09-30T03:40:50.108Z,976.905
2022-09-30T03:42:50.042Z,976.903
2022-09-30T03:44:50.278Z,976.924
2022-09-30T03:46:50.959Z,976.926
2022-09-30T03:48:50.337Z,976.961
2022-09-30T03:50:50.383Z,977.029
2022-09-30T03:52:50.503Z,977.016
2022-09-30T03:54:50.509Z,977.037
2022-09-30T03:56:50.788Z,977.042
2022-09-30T03:58:50.695Z,977.044
2022-09-30T04:00:50.945Z,977.085
2022-09-30T04:02:55.865Z,977.073
2022-09-30T04:04:50.565Z,977.066
2022-09-30T04:06:50.771Z,977.102
2022-09-30T04:08:49.830Z,977.082
2022-09-30T04:10:49.892Z,977.081
2022-09-30T04:12:49.820Z,977.048
2022-09-30T04:14:50.768Z,977.075
2022-09-30T04:16:54.334Z,977.082
2022-09-30T04:18:50.512Z,977.072
2022-09-30T04:20:50.269Z,977.152
2022-09-30T04:22:50.270Z,977.169
2022-09-30T04:24:50.090Z,977.135
2022-09-30T04:26:50.361Z,977.160
2022-09-30T04:28:50.180Z,977.204
2022-09-30T04:30:50.052Z,977.262
2022-09-30T04:32:49.857Z,977.292
2022-09-30T04:34:50.273Z,977.355
2022-09-30T04:36:50.575Z,977.345
2022-09-30T04:38:50.703Z,977.352
2022-09-30T04:40:50.419Z,977.363
2022-09-30T04:42:50.417Z,977.425
2022-09-30T04:44:50.430Z,977.428
2022-09-30T04:46:50.610Z,977.461
2022-09-30T04:48:50.621Z,977.408
2022-09-30T04:50:50.596Z,977.400
2022-09-30T04:52:50.563Z,977.447
2022-09-30T04:54:50.437Z,977.392
2022-09-30T04:56:50.648Z,977.371
2022-09-30T04:58:50.566Z,977.376
2022-09-30T05:00:50.820Z,977.405
2022-09-30T05:02:50.040Z,977.459
2022-09-30T05:04:50.384Z,977.495
2022-09-30T05:06:50.721Z,977.558
2022-09-30T05:08:50.664Z,977.598
2022-09-30T05:10:49.921Z,977.609
2022-09-30T05:12:49.900Z,977.637
2022-09-30T05:14:49.858Z,977.597
2022-09-30T05:16:50.186Z,977.606
2022-09-30T05:18:50.131Z,977.581
2022-09-30T05:20:50.267Z,977.617
2022-09-30T05:22:50.028Z,977.598
2022-09-30T05:24:50.099Z,977.611
2022-09-30T05:26:50.622Z,977.675
2022-09-30T05:28:50.795Z,977.698
2022-09-30T05:30:50.783Z,977.735
2022-09-30T05:32:50.752Z,977.796
2022-09-30T05:34:50.297Z,977.730
2022-09-30T05:36:49.993Z,977.741
2022-09-30T05:38:49.851Z,977.726
2022-09-30T05:40:49.890Z,977.758
2022-09-30T05:42:50.767Z,977.790
2022-09-30T05:44:50.732Z,977.757
2022-09-30T05:46:49.978Z,977.830
2022-09-30T05:48:50.139Z,977.954
2022-09-30T05:50:49.994Z,977.978
2022-09-30T05:52:50.085Z,977.978
2022-09-30T05:54:50.140Z,978.016
2022-09-30T05:56:50.310Z,978.016
2022-09-30T05:58:50.075Z,978.066
2022-09-30T06:00:50.103Z,978.066
2022-09-30T06:02:50.872Z,978.124
2022-09-30T06:04:49.984Z,978.106
2022-09-30T06:06:50.164Z,978.116
2022-09-30T06:08:50.137Z,978.105
2022-09-30T06:10:49.980Z,978.140
2022-09-30T06:12:50.273Z,978.140
2022-09-30T06:14:50.137Z,978.240
2022-09-30T06:16:50.651Z,978.311
2022-09-30T06:18:49.885Z,978.345
2022-09-30T06:20:49.990Z,978.368
2022-09-30T06:22:50.036Z,978.429
2022-09-30T06:24:55.659Z,978.416
2022-09-30T06:26:50.134Z,978.379
2022-09-30T06:28:50.089Z,978.404
2022-09-30T06:30:50.201Z,978.412
2022-09-30T06:32:50.218Z,978.455
2022-09-30T06:34:50.012Z,978.459
2022-09-30T06:36:50.226Z,978.476
2022-09-30T06:38:50.370Z,978.508
2022-09-30T06:40:50.559Z,978.523
2022-09-30T06:42:50.590Z,978.498
2022-09-30T06:44:53.922Z,978.528
2022-09-30T06:46:54.504Z,978.513
2022-09-30T06:48:50.727Z,978.517
2022-09-30T06:51:02.496Z,978.622
2022-09-30T06:52:50.239Z,978.645
2022-09-30T06:54:50.270Z,978.674
2022-09-30T06:56:50.717Z,978.678
2022-09-30T06:58:50.600Z,978.644
2022-09-30T07:00:50.687Z,978.641
2022-09-30T07:02:50.122Z,978.647
2022-09-30T07:04:50.730Z,978.667
2022-09-30T07:06:49.859Z,978.694
2022-09-30T07:08:50.764Z,978.788
2022-09-30T07:10:50.586Z,978.831
2022-09-30T07:12:50.484Z,978.898
2022-09-30T07:14:50.578Z,978.918
2022-09-30T07:16:50.072Z,978.862
2022-09-30T07:18:50.217Z,978.846
2022-09-30T07:20:50.146Z,978.849
2022-09-30T07:22:50.182Z,978.882
2022-09-30T07:24:50.396Z,978.910
2022-09-30T07:26:50.671Z,978.947
2022-09-30T07:28:50.663Z,979.007
2022-09-30T07:30:50.688Z,979.010
2022-09-30T07:32:50.604Z,979.009
2022-09-30T07:34:50.117Z,979.014
2022-09-30T07:36:50.213Z,978.997
2022-09-30T07:38:50.152Z,979.043
2022-09-30T07:40:50.328Z,979.035
2022-09-30T07:42:50.485Z,979.046
2022-09-30T07:44:50.356Z,979.067
2022-09-30T07:46:50.681Z,979.135
2022-09-30T07:48:50.729Z,979.196
2022-09-30T07:50:50.638Z,979.209
2022-09-30T07:52:50.546Z,979.263
2022-09-30T07:54:51.173Z,979.304
2022-09-30T07:57:11.487Z,979.358
2022-09-30T07:58:50.310Z,979.358
2022-09-30T08:00:50.345Z,979.358
2022-09-30T08:02:50.484Z,979.411
2022-09-30T08:04:49.832Z,979.408
2022-09-30T08:06:50.476Z,979.451
2022-09-30T08:08:50.625Z,979.472
2022-09-30T08:10:50.597Z,979.464
2022-09-30T08:12:59.195Z,979.475
2022-09-30T08:14:50.094Z,979.447
2022-09-30T08:16:50.520Z,979.437
2022-09-30T08:18:50.798Z,979.530
2022-09-30T08:20:50.644Z,979.513
2022-09-30T08:22:50.557Z,979.470
2022-09-30T08:24:50.523Z,979.478
2022-09-30T08:26:50.047Z,979.488
2022-09-30T08:28:50.281Z,979.466
2022-09-30T08:30:50.380Z,979.528
2022-09-30T08:32:50.268Z,979.497
2022-09-30T08:34:50.773Z,979.547
2022-09-30T08:36:50.228Z,979.546
2022-09-30T08:38:50.241Z,979.551
2022-09-30T08:40:50.182Z,979.582
2022-09-30T08:42:57.957Z,979.587
2022-09-30T08:44:50.237Z,979.633
2022-09-30T08:46:58.704Z,979.622
2022-09-30T08:48:50.673Z,979.618
2022-09-30T08:50:49.844Z,979.574
2022-09-30T08:52:51.142Z,979.638
2022-09-30T08:54:50.491Z,979.672
2022-09-30T08:56:49.973Z,979.691
2022-09-30T08:58:49.991Z,979.702
2022-09-30T09:00:50.141Z,979.723
2022-09-30T09:02:50.703Z,979.794
2022-09-30T09:04:50.276Z,979.798
2022-09-30T09:06:50.553Z,979.815
2022-09-30T09:08:50.494Z,979.808
2022-09-30T09:10:50.715Z,979.799
2022-09-30T09:12:50.526Z,979.794
2022-09-30T09:14:50.466Z,979.817
2022-09-30T09:16:50.906Z,979.742
2022-09-30T09:18:49.810Z,979.781
2022-09-30T09:20:49.936Z,979.768
2022-09-30T09:22:49.830Z,979.800
2022-09-30T09:24:50.673Z,979.822
2022-09-30T09:26:50.191Z,979.863
2022-09-30T09:28:54.062Z,979.859
2022-09-30T09:30:49.965Z,979.894
2022-09-30T09:32:50.734Z,979.923
2022-09-30T09:34:50.146Z,979.888
2022-09-30T09:36:50.617Z,979.869
2022-09-30T09:38:50.698Z,979.830
2022-09-30T09:40:50.709Z,979.850
2022-09-30T09:42:50.425Z,979.850
2022-09-30T09:44:50.545Z,979.926
2022-09-30T09:46:50.164Z,979.909
2022-09-30T09:48:50.207Z,979.862
2022-09-30T09:50:50.304Z,979.921
2022-09-30T09:52:50.044Z,979.850
2022-09-30T09:54:50.210Z,979.897
2022-09-30T09:56:50.497Z,979.860
2022-09-30T10:00:50.809Z,979.875
2022-09-30T10:02:50.770Z,979.846
2022-09-30T10:04:50.073Z,979.847
2022-09-30T10:06:50.283Z,979.840
2022-09-30T10:08:50.034Z,979.844
2022-09-30T10:10:50.043Z,979.872
2022-09-30T10:12:49.788Z,979.878
2022-09-30T10:14:50.657Z,979.839
2022-09-30T10:16:49.901Z,979.814
2022-09-30T10:18:50.739Z,979.814
2022-09-30T10:20:50.236Z,979.774
2022-09-30T10:22:50.459Z,979.748
2022-09-30T10:24:50.423Z,979.689
2022-09-30T10:26:50.519Z,979.717
2022-09-30T10:28:50.583Z,979.687
2022-09-30T10:30:50.666Z,979.689
2022-09-30T10:32:50.789Z,979.653
2022-09-30T10:34:50.594Z,979.680
2022-09-30T10:36:50.059Z,979.595
2022-09-30T10:38:49.951Z,979.619
2022-09-30T10:40:49.984Z,979.656
2022-09-30T10:42:49.923Z,979.664
2022-09-30T10:44:50.771Z,979.682
2022-09-30T10:46:50.160Z,979.671
2022-09-30T10:48:50.604Z,979.683
2022-09-30T10:50:50.649Z,979.698
2022-09-30T10:52:50.682Z,979.683
2022-09-30T10:54:50.541Z,979.665
2022-09-30T10:56:51.513Z,979.666
2022-09-30T10:58:50.139Z,979.636
2022-09-30T11:00:50.462Z,979.593
2022-09-30T11:02:54.443Z,979.549
2022-09-30T11:04:50.311Z,979.569
2022-09-30T11:06:50.699Z,979.591
2022-09-30T11:08:50.544Z,979.656
2022-09-30T11:10:50.451Z,979.683
2022-09-30T11:12:50.316Z,979.690
2022-09-30T11:14:50.464Z,979.788
2022-09-30T11:16:51.096Z,979.736
2022-09-30T11:18:50.072Z,979.734
2022-09-30T11:20:49.869Z,979.734
2022-09-30T11:22:49.837Z,979.788
2022-09-30T11:24:50.698Z,979.849
2022-09-30T11:26:50.044Z,979.845
2022-09-30T11:28:49.919Z,979.778
2022-09-30T11:30:49.831Z,979.749
2022-09-30T11:32:49.888Z,979.762
2022-09-30T11:34:50.270Z,979.720
2022-09-30T11:36:50.455Z,979.712
2022-09-30T11:38:50.503Z,979.723
2022-09-30T11:40:50.369Z,979.743
2022-09-30T11:42:50.403Z,979.663
2022-09-30T11:44:50.395Z,979.663
2022-09-30T11:46:50.628Z,979.640
2022-09-30T11:48:50.765Z,979.711
2022-09-30T11:50:49.798Z,979.682
2022-09-30T11:52:50.656Z,979.603
2022-09-30T11:54:50.639Z,979.636
2022-09-30T11:56:49.838Z,979.627
2022-09-30T11:58:49.920Z,979.526
2022-09-30T12:00:49.981Z,979.535
2022-09-30T12:02:50.120Z,979.491
2022-09-30T12:04:50.563Z,979.512
2022-09-30T12:06:50.721Z,979.586
2022-09-30T12:08:49.869Z,979.554
2022-09-30T12:10:49.979Z,979.554
2022-09-30T12:12:49.938Z,979.538
2022-09-30T12:14:50.106Z,979.561
2022-09-30T12:16:50.942Z,979.604
2022-09-30T12:18:50.589Z,979.602
2022-09-30T12:20:50.497Z,979.667
2022-09-30T12:22:50.352Z,979.713
2022-09-30T12:24:50.348Z,979.730
2022-09-30T12:26:50.808Z,979.734
2022-09-30T12:28:49.885Z,979.712
2022-09-30T12:30:50.084Z,979.769
2022-09-30T12:32:50.122Z,979.715
2022-09-30T12:34:50.741Z,979.690
2022-09-30T12:36:50.811Z,979.636
2022-09-30T12:38:49.833Z,979.642
2022-09-30T12:40:53.285Z,979.707
2022-09-30T12:42:50.370Z,979.676
2022-09-30T12:44:50.311Z,979.634
2022-09-30T12:46:50.398Z,979.625
2022-09-30T12:48:50.301Z,979.714
2022-09-30T12:50:50.364Z,979.644
2022-09-30T12:52:50.213Z,979.679
2022-09-30T12:54:50.466Z,979.615
2022-09-30T12:56:50.739Z,979.634
2022-09-30T12:58:49.886Z,979.635
2022-09-30T13:00:50.108Z,979.663
2022-09-30T13:02:50.257Z,979.647
2022-09-30T13:04:50.604Z,979.667
2022-09-30T13:06:49.983Z,979.729
2022-09-30T13:08:49.923Z,979.736
2022-09-30T13:10:49.824Z,979.722
2022-09-30T13:12:50.745Z,979.710
2022-09-30T13:14:50.758Z,979.711
2022-09-30T13:16:49.974Z,979.689
2022-09-30T13:18:50.156Z,979.668
2022-09-30T13:20:50.150Z,979.690
2022-09-30T13:22:49.959Z,979.619
2022-09-30T13:24:49.874Z,979.661
2022-09-30T13:26:50.169Z,979.724
2022-09-30T13:28:50.190Z,979.718
2022-09-30T13:30:50.169Z,979.714
2022-09-30T13:32:50.309Z,979.706
2022-09-30T13:34:50.750Z,979.718
2022-09-30T13:36:50.055Z,979.726
2022-09-30T13:38:50.118Z,979.713
2022-09-30T13:41:03.773Z,979.720
2022-09-30T13:42:50.518Z,979.691
2022-09-30T13:44:57.757Z,979.737
2022-09-30T13:46:49.857Z,979.771
2022-09-30T13:48:49.906Z,979.787
2022-09-30T13:50:50.042Z,979.775
2022-09-30T13:52:50.179Z,979.793
2022-09-30T13:54:49.960Z,979.714
2022-09-30T13:56:50.125Z,979.755
2022-09-30T13:58:50.101Z,979.797
2022-09-30T14:00:50.288Z,979.806
2022-09-30T14:02:50.554Z,979.808
2022-09-30T14:04:50.418Z,979.761
2022-09-30T14:06:50.602Z,979.874
2022-09-30T14:08:50.607Z,979.872
2022-09-30T14:10:49.981Z,979.884
2022-09-30T14:12:50.755Z,979.886
2022-09-30T14:14:50.644Z,979.839
2022-09-30T14:16:49.990Z,979.801
2022-09-30T14:18:49.947Z,979.838
2022-09-30T14:20:49.918Z,979.844
2022-09-30T14:22:50.055Z,979.805
2022-09-30T14:24:49.942Z,979.784
2022-09-30T14:26:50.233Z,979.821
2022-09-30T14:28:50.569Z,979.824
2022-09-30T14:30:50.944Z,979.824
2022-09-30T14:32:50.807Z,979.839
2022-09-30T14:34:50.231Z,979.851
2022-09-30T14:36:50.527Z,979.878
2022-09-30T14:38:50.409Z,979.790
2022-09-30T14:40:50.536Z,979.797
2022-09-30T14:42:50.702Z,979.796
2022-09-30T14:44:50.692Z,979.782
2022-09-30T14:46:50.842Z,979.787
2022-09-30T14:48:50.884Z,979.776
2022-09-30T14:50:50.833Z,979.786
2022-09-30T14:52:49.925Z,979.772
2022-09-30T14:54:50.090Z,979.806
2022-09-30T14:56:50.569Z,979.806
2022-09-30T14:58:50.467Z,979.864
2022-09-30T15:00:50.625Z,979.864
2022-09-30T15:02:49.902Z,979.849
2022-09-30T15:04:50.964Z,979.875
2022-09-30T15:06:50.561Z,979.840
2022-09-30T15:08:50.718Z,979.911
2022-09-30T15:10:50.597Z,979.922
2022-09-30T15:12:49.949Z,979.951
2022-09-30T15:14:49.867Z,979.993
2022-09-30T15:16:49.956Z,979.958
2022-09-30T15:18:49.985Z,979.949
2022-09-30T15:20:50.126Z,979.965
2022-09-30T15:22:50.167Z,980.053
2022-09-30T15:24:50.204Z,980.001
2022-09-30T15:26:50.481Z,980.033
2022-09-30T15:28:50.601Z,979.958
2022-09-30T15:30:50.861Z,979.924
2022-09-30T15:32:52.228Z,979.930
2022-09-30T15:34:49.953Z,979.946
2022-09-30T15:36:50.297Z,979.999
2022-09-30T15:38:50.696Z,979.996
2022-09-30T15:40:50.697Z,980.033
2022-09-30T15:42:50.613Z,980.015
2022-09-30T15:44:50.538Z,980.013
2022-09-30T15:46:49.940Z,979.970
2022-09-30T15:48:49.960Z,979.973
2022-09-30T15:50:50.066Z,979.920
2022-09-30T15:52:50.120Z,979.974
2022-09-30T15:54:50.115Z,979.965
2022-09-30T15:56:50.555Z,979.981
2022-09-30T15:58:50.647Z,979.983
2022-09-30T16:00:50.819Z,979.999
2022-09-30T16:02:50.099Z,980.016
2022-09-30T16:04:50.851Z,979.984
2022-09-30T16:06:50.085Z,979.968
2022-09-30T16:08:49.997Z,979.980
2022-09-30T16:10:50.117Z,980.023
2022-09-30T16:12:50.476Z,980.032
2022-09-30T16:14:49.870Z,980.028
2022-09-30T16:16:50.670Z,980.016
2022-09-30T16:18:50.074Z,980.011
2022-09-30T16:20:50.120Z,980.040
2022-09-30T16:22:50.314Z,980.026
2022-09-30T16:24:50.491Z,980.051
2022-09-30T16:26:50.889Z,980.015
2022-09-30T16:28:50.113Z,980.049
2022-09-30T16:30:50.139Z,980.068
2022-09-30T16:32:50.026Z,980.068
2022-09-30T16:34:50.557Z,980.084
2022-09-30T16:36:50.086Z,980.096
2022-09-30T16:38:50.080Z,980.080
2022-09-30T16:40:50.316Z,980.068
2022-09-30T16:42:50.386Z,980.076
2022-09-30T16:44:50.531Z,980.025
2022-09-30T16:46:50.858Z,980.075
2022-09-30T16:48:50.839Z,980.082
2022-09-30T16:50:50.839Z,980.100
2022-09-30T16:52:50.693Z,980.090
2022-09-30T16:54:50.733Z,980.078
2022-09-30T16:56:49.877Z,980.073
2022-09-30T16:58:49.945Z,980.096
2022-09-30T17:00:50.167Z,980.120
2022-09-30T17:02:50.672Z,980.184
2022-09-30T17:04:50.240Z,980.260
2022-09-30T17:06:50.529Z,980.281
2022-09-30T17:08:50.618Z,980.318
2022-09-30T17:10:50.579Z,980.332
2022-09-30T17:12:50.807Z,980.321
2022-09-30T17:14:49.982Z,980.350
2022-09-30T17:16:50.344Z,980.329
2022-09-30T17:18:50.474Z,980.385
2022-09-30T17:20:50.728Z,980.373
2022-09-30T17:22:50.720Z,980.414
2022-09-30T17:24:50.821Z,980.412
2022-09-30T17:26:50.304Z,980.389
2022-09-30T17:28:50.406Z,980.415
2022-09-30T17:30:50.251Z,980.378
2022-09-30T17:32:50.364Z,980.413
2022-09-30T17:34:50.870Z,980.400
2022-09-30T17:36:49.931Z,980.424
2022-09-30T17:38:49.898Z,980.455
2022-09-30T17:40:50.079Z,980.442
2022-09-30T17:42:50.121Z,980.444
2022-09-30T17:44:50.301Z,980.474
2022-09-30T17:46:50.521Z,980.455
2022-09-30T17:48:50.565Z,980.419
2022-09-30T17:50:50.795Z,980.412
2022-09-30T17:52:50.819Z,980.431
2022-09-30T17:54:52.885Z,980.422
2022-09-30T17:56:50.314Z,980.402
2022-09-30T17:58:50.481Z,980.421
2022-09-30T18:00:50.201Z,980.423
2022-09-30T18:02:50.423Z,980.390
2022-09-30T18:04:50.851Z,980.431
2022-09-30T18:06:50.060Z,980.413
2022-09-30T18:08:50.003Z,980.432
2022-09-30T18:10:50.075Z,980.497
2022-09-30T18:12:50.048Z,980.508
2022-09-30T18:14:50.251Z,980.487
2022-09-30T18:16:50.984Z,980.473
2022-09-30T18:18:50.293Z,980.433
2022-09-30T18:20:50.474Z,980.474
2022-09-30T18:22:50.567Z,980.477
2022-09-30T18:24:50.493Z,980.501
2022-09-30T18:26:49.949Z,980.484
2022-09-30T18:28:50.076Z,980.518
2022-09-30T18:30:50.168Z,980.532
2022-09-30T18:32:50.235Z,980.557
2022-09-30T18:34:49.882Z,980.570
2022-09-30T18:36:50.241Z,980.592
2022-09-30T18:38:50.424Z,980.592
2022-09-30T18:40:50.519Z,980.588
2022-09-30T18:42:50.519Z,980.669
2022-09-30T18:44:50.782Z,980.704
2022-09-30T18:46:49.976Z,980.706
2022-09-30T18:48:50.135Z,980.691
2022-09-30T18:50:50.046Z,980.692
2022-09-30T18:52:50.340Z,980.658
2022-09-30T18:54:50.253Z,980.682
2022-09-30T18:56:50.515Z,980.630
2022-09-30T18:58:50.509Z,980.606
2022-09-30T19:00:50.769Z,980.529
2022-09-30T19:02:49.908Z,980.532
2022-09-30T19:04:50.760Z,980.504
2022-09-30T19:06:50.868Z,980.515
2022-09-30T19:08:50.289Z,980.562
2022-09-30T19:10:50.357Z,980.595
2022-09-30T19:12:50.488Z,980.627
2022-09-30T19:14:50.641Z,980.627
2022-09-30T19:16:50.213Z,980.654
2022-09-30T19:18:50.528Z,980.654
2022-09-30T19:20:50.594Z,980.667
2022-09-30T19:22:50.010Z,980.632
2022-09-30T19:24:50.075Z,980.699
2022-09-30T19:26:50.303Z,980.670
2022-09-30T19:28:50.450Z,980.697
2022-09-30T19:30:50.847Z,980.691
2022-09-30T19:32:50.845Z,980.726
2022-09-30T19:35:07.027Z,980.731
2022-09-30T19:36:52.255Z,980.752
2022-09-30T19:39:08.097Z,980.809
2022-09-30T19:40:50.395Z,980.809
2022-09-30T19:42:50.576Z,980.805
2022-09-30T19:44:50.444Z,980.828
2022-09-30T19:46:50.752Z,980.789
2022-09-30T19:48:50.190Z,980.839
2022-09-30T19:50:50.311Z,980.778
2022-09-30T19:52:57.955Z,980.844
2022-09-30T19:54:50.017Z,980.844
2022-09-30T19:56:50.565Z,980.918
2022-09-30T19:58:50.591Z,980.899
2022-09-30T20:00:50.959Z,980.931
2022-09-30T20:02:50.020Z,980.914
2022-09-30T20:04:50.702Z,980.963
2022-09-30T20:06:50.843Z,981.025
2022-09-30T20:08:49.941Z,981.020
2022-09-30T20:10:50.797Z,981.065
2022-09-30T20:12:49.945Z,981.066
2022-09-30T20:14:49.966Z,981.021
2022-09-30T20:16:50.419Z,981.078
2022-09-30T20:18:50.365Z,981.042
2022-09-30T20:20:50.571Z,981.050
2022-09-30T20:22:50.686Z,981.063
2022-09-30T20:24:50.691Z,980.964
2022-09-30T20:26:50.054Z,980.994
2022-09-30T20:28:50.234Z,981.013
2022-09-30T20:30:50.140Z,980.958
2022-09-30T20:32:50.467Z,980.949
2022-09-30T20:34:50.166Z,980.970
2022-09-30T20:36:50.327Z,981.023
2022-09-30T20:38:50.479Z,980.960
2022-09-30T20:40:50.528Z,980.896
2022-09-30T20:42:50.637Z,980.899
2022-09-30T20:44:50.472Z,980.812
2022-09-30T20:46:49.896Z,980.754
2022-09-30T20:48:50.866Z,980.712
2022-09-30T20:50:50.189Z,980.650
2022-09-30T20:52:50.222Z,980.606
2022-09-30T20:54:50.472Z,980.603
2022-09-30T20:57:08.184Z,980.580
2022-09-30T20:58:50.732Z,980.625
2022-09-30T21:00:50.044Z,980.616
2022-09-30T21:02:50.306Z,980.665
2022-09-30T21:04:52.948Z,980.664
2022-09-30T21:06:50.067Z,980.664
2022-09-30T21:08:50.047Z,980.685
2022-09-30T21:10:49.974Z,980.636
2022-09-30T21:12:49.906Z,980.601
2022-09-30T21:14:49.856Z,980.564
2022-09-30T21:16:50.327Z,980.531
2022-09-30T21:18:50.530Z,980.563
2022-09-30T21:20:50.580Z,980.611
2022-09-30T21:22:50.669Z,980.612
2022-09-30T21:24:50.565Z,980.609
2022-09-30T21:26:49.978Z,980.662
2022-09-30T21:28:50.003Z,980.675
2022-09-30T21:30:49.990Z,980.696
2022-09-30T21:32:49.967Z,980.756
2022-09-30T21:34:50.690Z,980.736
2022-09-30T21:36:49.948Z,980.802
2022-09-30T21:38:50.034Z,980.855
2022-09-30T21:40:50.193Z,980.860
2022-09-30T21:42:50.216Z,980.908
2022-09-30T21:44:50.407Z,980.915
2022-09-30T21:46:50.653Z,980.951
2022-09-30T21:48:50.747Z,980.976
2022-09-30T21:50:49.907Z,980.987
2022-09-30T21:52:50.071Z,981.004
2022-09-30T21:54:50.022Z,981.071
2022-09-30T21:56:50.305Z,981.155
2022-09-30T21:58:50.299Z,981.195
2022-09-30T22:00:50.688Z,981.211
2022-09-30T22:02:50.833Z,981.211
2022-09-30T22:04:50.686Z,981.278
2022-09-30T22:06:49.975Z,981.278
2022-09-30T22:08:49.959Z,981.298
2022-09-30T22:10:49.942Z,981.322
2022-09-30T22:12:49.936Z,981.349
2022-09-30T22:14:49.972Z,981.362
2022-09-30T22:16:50.410Z,981.396
2022-09-30T22:18:50.773Z,981.367
2022-09-30T22:20:49.932Z,981.363
2022-09-30T22:22:50.046Z,981.362
2022-09-30T22:24:50.173Z,981.350
2022-09-30T22:26:50.366Z,981.327
2022-09-30T22:28:50.551Z,981.323
2022-09-30T22:30:50.419Z,981.209
2022-09-30T22:32:50.383Z,981.162
2022-09-30T22:34:49.888Z,981.193
2022-09-30T22:36:50.251Z,981.164
2022-09-30T22:38:50.225Z,981.192
2022-09-30T22:40:50.237Z,981.221
2022-09-30T22:42:50.275Z,981.264
2022-09-30T22:44:50.429Z,981.221
2022-09-30T22:46:50.713Z,981.224
2022-09-30T22:48:50.735Z,981.238
2022-09-30T22:50:50.674Z,981.214
2022-09-30T22:52:50.569Z,981.236
2022-09-30T22:54:50.515Z,981.237
2022-09-30T22:56:50.000Z,981.274
2022-09-30T22:58:50.038Z,981.251
2022-09-30T23:00:50.064Z,981.204
2022-09-30T23:02:50.441Z,981.203
2022-09-30T23:04:50.825Z,981.220
2022-09-30T23:06:50.045Z,981.233
2022-09-30T23:08:50.012Z,981.206
2022-09-30T23:10:50.196Z,981.230
2022-09-30T23:12:50.324Z,981.230
2022-09-30T23:14:50.603Z,981.222
2022-09-30T23:16:50.260Z,981.216
2022-09-30T23:18:50.469Z,981.224
2022-09-30T23:20:50.669Z,981.199
2022-09-30T23:22:50.736Z,981.244
2022-09-30T23:24:49.855Z,981.250
2022-09-30T23:26:49.920Z,981.275
2022-09-30T23:28:50.176Z,981.249
2022-09-30T23:30:50.073Z,981.243
2022-09-30T23:32:50.105Z,981.260
2022-09-30T23:34:50.683Z,981.287
2022-09-30T23:36:50.194Z,981.228
2022-09-30T23:38:50.168Z,981.244
2022-09-30T23:40:50.333Z,981.208
2022-09-30T23:42:50.250Z,981.172
2022-09-30T23:44:50.441Z,981.231
2022-09-30T23:46:49.969Z,981.215
2022-09-30T23:48:50.034Z,981.225
2022-09-30T23:50:50.199Z,981.159
2022-09-30T23:52:50.180Z,981.168
2022-09-30T23:54:50.427Z,981.200
2022-09-30T23:56:50.614Z,981.199
2022-09-30T23:58:50.726Z,981.203
